Time;durP1;ratioP1;P1;durP2;ratioP2;P2;SDS_P1;SDS_P2;PMS_P1;PMS_P2;Temp;Humidity;BMP_temperature;BMP_pressure;BME280_temperature;BME280_humidity;BME280_pressure;Samples;Min_cycle;Max_cycle;Signal;HPM_P1;HPM_P2
2022/08/27 00:02:17;;;;;;;12.40;5.50;;;;;;;;;;5033116;28;20068;-73
2022/08/27 00:04:43;;;;;;;11.65;5.15;;;;;;;;;;5036847;28;20105;-73
2022/08/27 00:07:08;;;;;;;10.35;4.65;;;;;;;;;;5008084;28;20399;-74
2022/08/27 00:09:34;;;;;;;12.55;4.95;;;;;;;;;;5018476;28;20052;-70
2022/08/27 00:11:59;;;;;;;9.48;4.15;;;;;;;;;;5028385;28;20025;-74
2022/08/27 00:14:25;;;;;;;11.45;5.43;;;;;;;;;;5014988;28;20029;-74
2022/08/27 00:16:51;;;;;;;14.35;5.18;;;;;;;;;;5017329;28;20077;-74
2022/08/27 00:19:16;;;;;;;12.67;5.60;;;;;;;;;;5033550;28;20053;-70
2022/08/27 00:21:41;;;;;;;9.48;5.45;;;;;;;;;;5021463;28;20289;-74
2022/08/27 00:24:07;;;;;;;13.98;5.00;;;;;;;;;;5012946;28;20076;-73
2022/08/27 00:26:32;;;;;;;15.77;5.70;;;;;;;;;;5012986;28;20042;-73
2022/08/27 00:28:57;;;;;;;8.68;4.88;;;;;;;;;;5031473;28;20535;-74
2022/08/27 00:31:22;;;;;;;10.38;5.10;;;;;;;;;;5033122;28;20017;-74
2022/08/27 00:33:48;;;;;;;10.27;5.30;;;;;;;;;;5020417;28;20037;-71
2022/08/27 00:36:14;;;;;;;15.73;4.90;;;;;;;;;;5013026;28;20270;-73
2022/08/27 00:38:40;;;;;;;12.15;5.00;;;;;;;;;;5024129;28;20273;-74
2022/08/27 00:41:07;;;;;;;9.60;4.70;;;;;;;;;;5033320;28;20036;-74
2022/08/27 00:43:42;;;;;;;11.02;4.78;;;;;;;;;;5033141;28;20045;-70
2022/08/27 00:46:15;;;;;;;8.27;5.47;;;;;;;;;;5021422;28;20034;-74
2022/08/27 00:48:40;;;;;;;10.85;5.00;;;;;;;;;;5014196;28;20030;-74
2022/08/27 00:51:05;;;;;;;9.80;5.47;;;;;;;;;;5028120;28;20112;-71
2022/08/27 00:53:32;;;;;;;10.43;5.30;;;;;;;;;;5032732;28;20028;-73
2022/08/27 00:56:15;;;;;;;8.70;4.55;;;;;;;;;;5031134;28;20407;-74
2022/08/27 00:58:42;;;;;;;10.35;4.72;;;;;;;;;;5024887;28;20572;-73
2022/08/27 01:01:09;;;;;;;15.90;5.63;;;;;;;;;;5011163;28;20032;-73
2022/08/27 01:03:35;;;;;;;16.15;5.70;;;;;;;;;;5018065;28;20124;-74
2022/08/27 01:06:01;;;;;;;11.52;5.15;;;;;;;;;;5025709;28;20112;-73
2022/08/27 01:08:29;;;;;;;13.63;5.53;;;;;;;;;;5052303;28;20032;-73
2022/08/27 01:10:56;;;;;;;7.85;4.88;;;;;;;;;;5028589;28;20482;-74
2022/08/27 01:13:23;;;;;;;11.80;5.65;;;;;;;;;;5030776;28;20048;-74
2022/08/27 01:15:48;;;;;;;9.93;5.38;;;;;;;;;;5017929;28;20109;-71
2022/08/27 01:18:14;;;;;;;10.07;5.97;;;;;;;;;;5026325;28;20124;-74
2022/08/27 01:20:44;;;;;;;8.80;4.43;;;;;;;;;;5028988;28;20052;-74
2022/08/27 01:23:16;;;;;;;11.60;5.55;;;;;;;;;;5011975;28;20022;-74
2022/08/27 01:25:42;;;;;;;8.40;5.50;;;;;;;;;;5021247;28;20056;-74
2022/08/27 01:28:09;;;;;;;11.00;5.25;;;;;;;;;;5012184;28;20034;-74
2022/08/27 01:30:35;;;;;;;16.00;5.90;;;;;;;;;;5032618;28;20096;-70
2022/08/27 01:33:06;;;;;;;7.82;4.82;;;;;;;;;;5021401;28;20022;-74
2022/08/27 01:35:32;;;;;;;11.77;5.43;;;;;;;;;;5012521;28;20041;-74
2022/08/27 01:37:57;;;;;;;13.02;4.95;;;;;;;;;;5010780;28;20026;-73
2022/08/27 01:40:23;;;;;;;12.48;5.40;;;;;;;;;;5012102;28;20038;-73
2022/08/27 01:42:52;;;;;;;14.75;6.72;;;;;;;;;;5012192;28;20084;-74
2022/08/27 01:45:20;;;;;;;9.05;5.25;;;;;;;;;;5013104;28;20025;-74
2022/08/27 01:47:46;;;;;;;15.23;7.00;;;;;;;;;;5034595;28;20041;-74
2022/08/27 01:50:22;;;;;;;9.60;5.30;;;;;;;;;;5030603;28;20029;-71
2022/08/27 01:52:48;;;;;;;13.10;5.60;;;;;;;;;;5020356;28;20022;-73
2022/08/27 01:55:15;;;;;;;11.80;5.63;;;;;;;;;;5012279;28;20474;-74
2022/08/27 01:57:41;;;;;;;10.50;5.35;;;;;;;;;;5011619;28;20021;-73
2022/08/27 02:00:09;;;;;;;10.30;5.30;;;;;;;;;;5030705;28;20037;-74
2022/08/27 02:02:34;;;;;;;10.32;5.68;;;;;;;;;;5019222;28;20021;-71
2022/08/27 02:05:00;;;;;;;13.18;6.38;;;;;;;;;;5031776;28;20036;-74
2022/08/27 02:07:25;;;;;;;12.98;6.80;;;;;;;;;;5049347;28;20025;-74
2022/08/27 02:09:50;;;;;;;9.07;5.35;;;;;;;;;;5038883;28;20026;-71
2022/08/27 02:12:16;;;;;;;8.35;6.10;;;;;;;;;;5011677;28;20021;-70
2022/08/27 02:14:41;;;;;;;11.65;5.47;;;;;;;;;;5027658;28;20032;-74
2022/08/27 02:17:06;;;;;;;10.33;5.47;;;;;;;;;;5031162;28;20026;-74
2022/08/27 02:19:31;;;;;;;10.98;4.65;;;;;;;;;;5023982;28;20293;-72
2022/08/27 02:21:59;;;;;;;9.88;5.53;;;;;;;;;;5031033;28;20108;-70
2022/08/27 02:24:24;;;;;;;14.88;7.43;;;;;;;;;;5031504;28;20049;-74
2022/08/27 02:26:49;;;;;;;11.30;6.13;;;;;;;;;;5030875;28;20041;-73
2022/08/27 02:29:15;;;;;;;12.20;5.80;;;;;;;;;;5029153;28;20509;-74
2022/08/27 02:31:40;;;;;;;8.82;5.10;;;;;;;;;;5030896;28;20317;-74
2022/08/27 02:34:06;;;;;;;11.07;5.07;;;;;;;;;;5020125;28;20113;-73
2022/08/27 02:36:31;;;;;;;14.38;6.38;;;;;;;;;;5015132;28;20029;-73
2022/08/27 02:38:56;;;;;;;7.63;5.45;;;;;;;;;;5029636;28;20123;-73
2022/08/27 02:41:21;;;;;;;14.85;5.72;;;;;;;;;;5031339;28;20592;-70
2022/08/27 02:43:47;;;;;;;10.23;5.55;;;;;;;;;;5012486;28;20079;-73
2022/08/27 02:46:13;;;;;;;12.35;5.53;;;;;;;;;;5013772;28;20108;-71
2022/08/27 02:48:38;;;;;;;10.57;5.03;;;;;;;;;;5010944;28;20030;-73
2022/08/27 02:51:05;;;;;;;15.25;5.45;;;;;;;;;;5023822;28;20517;-74
2022/08/27 02:53:30;;;;;;;9.93;5.95;;;;;;;;;;5020805;28;20026;-74
2022/08/27 02:55:55;;;;;;;9.65;5.45;;;;;;;;;;5030924;28;20060;-73
2022/08/27 02:58:21;;;;;;;15.38;5.60;;;;;;;;;;5030410;28;20021;-71
2022/08/27 03:00:46;;;;;;;11.48;5.78;;;;;;;;;;5026316;28;20038;-74
2022/08/27 03:03:11;;;;;;;15.48;6.22;;;;;;;;;;5009674;28;20040;-73
2022/08/27 03:05:37;;;;;;;8.00;6.03;;;;;;;;;;5017159;28;20432;-70
2022/08/27 03:08:03;;;;;;;10.70;6.78;;;;;;;;;;5050612;28;20025;-74
2022/08/27 03:10:28;;;;;;;15.27;6.78;;;;;;;;;;5030251;28;20532;-74
2022/08/27 03:12:54;;;;;;;11.73;6.40;;;;;;;;;;5029705;28;20108;-73
2022/08/27 03:15:19;;;;;;;18.05;6.97;;;;;;;;;;5015292;28;20063;-71
2022/08/27 03:20:43;;;;;;;15.75;6.57;;;;;;;;;;5014961;28;20036;-73
2022/08/27 03:23:09;;;;;;;12.63;7.75;;;;;;;;;;5013777;28;20026;-70
2022/08/27 03:25:35;;;;;;;15.18;7.25;;;;;;;;;;5010791;28;20117;-70
2022/08/27 03:28:00;;;;;;;13.82;5.72;;;;;;;;;;5011910;28;20118;-71
2022/08/27 03:30:26;;;;;;;11.95;6.80;;;;;;;;;;5030835;28;20025;-70
2022/08/27 03:32:51;;;;;;;12.60;6.82;;;;;;;;;;5024163;28;20251;-71
2022/08/27 03:35:18;;;;;;;10.25;6.25;;;;;;;;;;5034469;28;20037;-71
2022/08/27 03:37:44;;;;;;;11.82;6.63;;;;;;;;;;5019926;28;20060;-70
2022/08/27 03:40:09;;;;;;;11.60;6.25;;;;;;;;;;5014246;28;20446;-74
2022/08/27 03:42:35;;;;;;;12.93;6.15;;;;;;;;;;5014882;28;20490;-73
2022/08/27 03:45:00;;;;;;;16.10;7.45;;;;;;;;;;5040019;28;20078;-73
2022/08/27 03:47:25;;;;;;;10.80;5.72;;;;;;;;;;5054356;28;20029;-70
2022/08/27 03:49:51;;;;;;;12.05;6.03;;;;;;;;;;5033725;28;20369;-71
2022/08/27 03:52:16;;;;;;;11.77;6.88;;;;;;;;;;5034010;28;20053;-71
2022/08/27 03:54:41;;;;;;;12.88;6.63;;;;;;;;;;5028294;28;20029;-74
2022/08/27 03:57:07;;;;;;;10.20;6.35;;;;;;;;;;5014086;28;20513;-74
2022/08/27 03:59:32;;;;;;;14.75;6.85;;;;;;;;;;5028413;28;20034;-73
2022/08/27 04:01:58;;;;;;;12.05;6.57;;;;;;;;;;5035427;28;20033;-71
2022/08/27 04:04:23;;;;;;;14.80;7.45;;;;;;;;;;5017901;28;20060;-73
2022/08/27 04:06:48;;;;;;;13.30;7.70;;;;;;;;;;5026488;28;20481;-72
2022/08/27 04:09:14;;;;;;;10.35;6.30;;;;;;;;;;5031693;28;20268;-73
2022/08/27 04:11:39;;;;;;;14.05;7.57;;;;;;;;;;5023014;28;20072;-71
2022/08/27 04:14:05;;;;;;;17.67;7.07;;;;;;;;;;5013436;28;20490;-73
2022/08/27 04:16:31;;;;;;;21.73;8.02;;;;;;;;;;5013596;28;20333;-71
2022/08/27 04:18:56;;;;;;;15.05;6.75;;;;;;;;;;5020191;28;20116;-73
2022/08/27 04:21:22;;;;;;;11.48;6.50;;;;;;;;;;5033442;28;20034;-74
2022/08/27 04:23:47;;;;;;;10.18;6.65;;;;;;;;;;5031361;28;20033;-73
2022/08/27 04:26:13;;;;;;;13.93;6.45;;;;;;;;;;5031646;28;20081;-71
2022/08/27 04:28:38;;;;;;;15.80;7.38;;;;;;;;;;5022565;28;20022;-73
2022/08/27 04:31:04;;;;;;;10.75;7.00;;;;;;;;;;5033077;28;20094;-73
2022/08/27 04:33:31;;;;;;;10.68;7.05;;;;;;;;;;5021689;28;20033;-73
2022/08/27 04:36:00;;;;;;;16.02;6.80;;;;;;;;;;5014712;28;20062;-73
2022/08/27 04:38:26;;;;;;;12.13;7.05;;;;;;;;;;5011520;28;20116;-74
2022/08/27 04:43:35;;;;;;;13.55;7.63;;;;;;;;;;5022212;28;20037;-73
2022/08/27 04:46:00;;;;;;;11.85;7.07;;;;;;;;;;5013134;28;20485;-70
2022/08/27 04:48:25;;;;;;;11.18;6.68;;;;;;;;;;5028866;28;20025;-71
2022/08/27 04:50:51;;;;;;;11.82;6.78;;;;;;;;;;5031130;28;20026;-73
2022/08/27 04:53:16;;;;;;;13.38;6.30;;;;;;;;;;5033062;28;20104;-74
2022/08/27 04:55:45;;;;;;;12.38;6.72;;;;;;;;;;5021199;28;20026;-74
2022/08/27 04:58:10;;;;;;;15.30;7.25;;;;;;;;;;5012667;28;20485;-73
2022/08/27 05:00:42;;;;;;;15.07;7.95;;;;;;;;;;5012193;28;20041;-70
2022/08/27 05:03:08;;;;;;;13.05;7.78;;;;;;;;;;5024141;28;20037;-73
2022/08/27 05:05:33;;;;;;;10.82;6.40;;;;;;;;;;5032874;28;20036;-74
2022/08/27 05:07:58;;;;;;;13.57;6.85;;;;;;;;;;5036153;28;20026;-73
2022/08/27 05:10:23;;;;;;;9.60;6.65;;;;;;;;;;5026483;28;20037;-70
2022/08/27 05:12:49;;;;;;;13.17;6.90;;;;;;;;;;5012166;28;20026;-74
2022/08/27 05:15:14;;;;;;;12.43;6.10;;;;;;;;;;5012715;28;20674;-73
2022/08/27 05:17:39;;;;;;;14.02;7.15;;;;;;;;;;5012701;28;20275;-74
2022/08/27 05:20:05;;;;;;;11.55;7.22;;;;;;;;;;5013093;28;20462;-73
2022/08/27 05:22:30;;;;;;;10.27;6.40;;;;;;;;;;5023966;28;20028;-70
2022/08/27 05:24:55;;;;;;;13.98;6.95;;;;;;;;;;5031965;28;20038;-70
2022/08/27 05:27:20;;;;;;;11.77;6.77;;;;;;;;;;5026695;28;20029;-74
2022/08/27 05:29:46;;;;;;;11.30;5.93;;;;;;;;;;5031811;28;20827;-74
2022/08/27 05:32:11;;;;;;;12.55;5.95;;;;;;;;;;5031064;28;20435;-73
2022/08/27 05:34:36;;;;;;;10.77;6.10;;;;;;;;;;5012497;28;20140;-73
2022/08/27 05:37:01;;;;;;;12.57;6.33;;;;;;;;;;5012111;28;20267;-73
2022/08/27 05:39:26;;;;;;;13.13;7.20;;;;;;;;;;5011912;28;20781;-73
2022/08/27 05:41:55;;;;;;;14.98;6.82;;;;;;;;;;5021044;28;20017;-71
2022/08/27 05:44:20;;;;;;;12.07;6.45;;;;;;;;;;5021031;28;20036;-74
2022/08/27 05:46:45;;;;;;;11.27;5.90;;;;;;;;;;5011912;28;20030;-70
2022/08/27 05:49:10;;;;;;;10.00;5.18;;;;;;;;;;5011744;28;20048;-73
2022/08/27 05:51:36;;;;;;;8.45;5.40;;;;;;;;;;5029144;28;20029;-70
2022/08/27 05:54:05;;;;;;;9.73;5.47;;;;;;;;;;5031637;28;20045;-73
2022/08/27 05:56:31;;;;;;;11.63;6.22;;;;;;;;;;5027449;28;20038;-74
2022/08/27 06:01:43;;;;;;;14.60;5.63;;;;;;;;;;5031303;28;20048;-74
2022/08/27 06:04:08;;;;;;;13.52;5.93;;;;;;;;;;5020212;28;20028;-73
2022/08/27 06:06:34;;;;;;;7.30;5.07;;;;;;;;;;5033794;28;20021;-74
2022/08/27 06:09:00;;;;;;;16.33;6.05;;;;;;;;;;5050660;28;20538;-74
2022/08/27 06:11:25;;;;;;;8.00;5.35;;;;;;;;;;5021063;28;20033;-73
2022/08/27 06:13:50;;;;;;;8.10;5.05;;;;;;;;;;5031523;28;20022;-74
2022/08/27 06:16:16;;;;;;;9.60;5.13;;;;;;;;;;5019244;28;20112;-74
2022/08/27 06:18:43;;;;;;;9.65;5.80;;;;;;;;;;5024786;28;20095;-71
2022/08/27 06:21:09;;;;;;;13.82;6.15;;;;;;;;;;5031345;28;20385;-73
2022/08/27 06:23:34;;;;;;;12.07;5.50;;;;;;;;;;5012017;28;20033;-73
2022/08/27 06:26:00;;;;;;;10.73;6.15;;;;;;;;;;5011458;28;20050;-73
2022/08/27 06:28:28;;;;;;;14.45;6.38;;;;;;;;;;5018949;28;20477;-74
2022/08/27 06:31:01;;;;;;;12.60;7.13;;;;;;;;;;5030884;28;20108;-73
2022/08/27 06:33:26;;;;;;;;;;;;;;;;;;5031647;28;20017;-74
2022/08/27 06:35:51;;;;;;;11.45;5.97;;;;;;;;;;5035628;28;20008;-73
2022/08/27 06:38:16;;;;;;;10.00;5.72;;;;;;;;;;5011172;28;20038;-73
2022/08/27 06:40:41;;;;;;;10.38;5.80;;;;;;;;;;5025235;28;20088;-69
2022/08/27 06:43:07;;;;;;;10.73;5.88;;;;;;;;;;5024559;28;20093;-71
2022/08/27 06:45:35;;;;;;;15.18;5.75;;;;;;;;;;5011075;28;20037;-71
2022/08/27 06:48:01;;;;;;;11.20;4.97;;;;;;;;;;5011352;28;20100;-70
2022/08/27 06:50:26;;;;;;;7.82;4.90;;;;;;;;;;5015794;28;20033;-73
2022/08/27 06:52:51;;;;;;;7.77;5.43;;;;;;;;;;5025420;28;20528;-71
2022/08/27 06:55:16;;;;;;;15.45;7.05;;;;;;;;;;5026859;28;20287;-74
2022/08/27 06:57:42;;;;;;;9.67;4.60;;;;;;;;;;5011322;28;20481;-73
2022/08/27 07:00:08;;;;;;;11.85;5.32;;;;;;;;;;5026027;28;20251;-70
2022/08/27 07:02:33;;;;;;;10.25;5.38;;;;;;;;;;5012787;28;20032;-70
2022/08/27 07:04:59;;;;;;;7.85;4.30;;;;;;;;;;5030727;28;20033;-74
2022/08/27 07:07:24;;;;;;;10.57;5.80;;;;;;;;;;5048548;28;20021;-74
2022/08/27 07:09:50;;;;;;;11.43;4.90;;;;;;;;;;5033203;28;20362;-71
2022/08/27 07:12:15;;;;;;;10.88;6.10;;;;;;;;;;5017007;28;20030;-73
2022/08/27 07:14:40;;;;;;;8.93;4.35;;;;;;;;;;5014702;28;20030;-74
2022/08/27 07:17:07;;;;;;;9.23;4.25;;;;;;;;;;5014498;28;20383;-73
2022/08/27 07:19:33;;;;;;;12.32;4.32;;;;;;;;;;5014841;28;20030;-73
2022/08/27 07:21:58;;;;;;;9.85;4.72;;;;;;;;;;5030798;28;20032;-71
2022/08/27 07:24:23;;;;;;;8.52;4.22;;;;;;;;;;5034370;28;20168;-73
2022/08/27 07:26:48;;;;;;;7.23;3.30;;;;;;;;;;5021747;28;20081;-73
2022/08/27 07:29:14;;;;;;;8.77;3.70;;;;;;;;;;5026740;28;20277;-73
2022/08/27 07:31:39;;;;;;;8.95;3.08;;;;;;;;;;5014825;28;20038;-69
2022/08/27 07:34:05;;;;;;;8.55;3.25;;;;;;;;;;5014359;28;20096;-74
2022/08/27 07:36:31;;;;;;;6.20;2.75;;;;;;;;;;5032226;28;20049;-73
2022/08/27 07:38:57;;;;;;;8.00;2.80;;;;;;;;;;5029979;28;20041;-70
2022/08/27 07:41:22;;;;;;;9.70;2.45;;;;;;;;;;5033232;28;20052;-70
2022/08/27 07:46:31;;;;;;;10.43;2.72;;;;;;;;;;5014337;28;20405;-71
2022/08/27 07:48:56;;;;;;;4.85;2.40;;;;;;;;;;5013767;28;20014;-70
2022/08/27 07:51:23;;;;;;;6.00;2.35;;;;;;;;;;5025133;28;20026;-74
2022/08/27 07:53:48;;;;;;;5.70;2.50;;;;;;;;;;5013940;28;20038;-73
2022/08/27 07:56:14;;;;;;;6.93;3.13;;;;;;;;;;5017760;28;20021;-73
2022/08/27 07:58:39;;;;;;;9.32;3.38;;;;;;;;;;5025458;28;20501;-69
2022/08/27 08:01:05;;;;;;;5.85;2.40;;;;;;;;;;5022019;28;20466;-70
2022/08/27 08:03:30;;;;;;;11.60;3.25;;;;;;;;;;5015417;28;20029;-70
2022/08/27 08:05:56;;;;;;;9.77;2.92;;;;;;;;;;5032924;28;20040;-71
2022/08/27 08:08:22;;;;;;;8.20;2.67;;;;;;;;;;5053655;28;20017;-73
2022/08/27 08:10:47;;;;;;;10.18;3.20;;;;;;;;;;5024401;28;20033;-73
2022/08/27 08:13:13;;;;;;;6.93;2.53;;;;;;;;;;5013115;28;20485;-70
2022/08/27 08:15:38;;;;;;;7.32;2.70;;;;;;;;;;5014473;28;20037;-74
2022/08/27 08:18:04;;;;;;;7.15;2.95;;;;;;;;;;5021115;28;20104;-74
2022/08/27 08:20:29;;;;;;;8.90;3.53;;;;;;;;;;5017358;28;20053;-71
2022/08/27 08:22:55;;;;;;;8.20;3.13;;;;;;;;;;5026555;28;20135;-74
2022/08/27 08:25:20;;;;;;;10.85;3.45;;;;;;;;;;5013419;28;20310;-71
2022/08/27 08:27:46;;;;;;;8.38;2.92;;;;;;;;;;5013897;28;20033;-70
2022/08/27 08:30:12;;;;;;;5.57;3.22;;;;;;;;;;5013525;28;20022;-73
2022/08/27 08:32:37;;;;;;;10.73;3.15;;;;;;;;;;5020432;28;20473;-73
2022/08/27 08:35:04;;;;;;;7.90;2.65;;;;;;;;;;5028868;28;20382;-70
2022/08/27 08:37:29;;;;;;;8.60;3.20;;;;;;;;;;5031661;28;20501;-71
2022/08/27 08:39:54;;;;;;;6.93;3.17;;;;;;;;;;5018009;28;20117;-71
2022/08/27 08:42:31;;;;;;;7.57;2.80;;;;;;;;;;5013342;28;20563;-73
2022/08/27 08:44:58;;;;;;;7.78;2.60;;;;;;;;;;5013215;28;20030;-73
2022/08/27 08:47:42;;;;;;;13.55;4.70;;;;;;;;;;5020686;28;20028;-74
2022/08/27 08:50:07;;;;;;;8.25;3.20;;;;;;;;;;5018412;28;20029;-70
2022/08/27 08:52:49;;;;;;;8.15;2.63;;;;;;;;;;5033345;28;20489;-73
2022/08/27 08:55:26;;;;;;;9.75;2.58;;;;;;;;;;5032788;28;20025;-72
2022/08/27 08:58:02;;;;;;;9.90;2.88;;;;;;;;;;5016265;28;20490;-73
2022/08/27 09:00:27;;;;;;;10.68;3.30;;;;;;;;;;5033032;28;20059;-73
2022/08/27 09:02:53;;;;;;;9.30;2.88;;;;;;;;;;5030306;28;20013;-73
2022/08/27 09:05:19;;;;;;;10.68;3.30;;;;;;;;;;5029210;28;20386;-71
2022/08/27 09:08:11;;;;;;;7.80;2.88;;;;;;;;;;5036437;28;20507;-73
2022/08/27 09:10:42;;;;;;;8.65;3.30;;;;;;;;;;5036226;28;20037;-73
2022/08/27 09:13:16;;;;;;;8.10;2.72;;;;;;;;;;5025292;28;20101;-73
2022/08/27 09:15:41;;;;;;;10.82;2.75;;;;;;;;;;5012595;28;20564;-73
2022/08/27 09:18:08;;;;;;;14.63;3.47;;;;;;;;;;5015437;28;20022;-70
2022/08/27 09:20:34;;;;;;;10.18;3.30;;;;;;;;;;5016722;28;20029;-73
2022/08/27 09:23:10;;;;;;;5.88;2.40;;;;;;;;;;5028183;28;20436;-74
2022/08/27 09:25:37;;;;;;;9.52;3.47;;;;;;;;;;5022719;28;20567;-74
2022/08/27 09:28:05;;;;;;;8.35;2.47;;;;;;;;;;5014478;28;20030;-74
2022/08/27 09:30:32;;;;;;;6.82;2.40;;;;;;;;;;5031521;28;20036;-70
2022/08/27 09:33:03;;;;;;;3.55;2.15;;;;;;;;;;5029540;28;20020;-73
2022/08/27 09:35:34;;;;;;;7.38;2.45;;;;;;;;;;5023388;28;20033;-70
2022/08/27 09:38:00;;;;;;;13.73;2.72;;;;;;;;;;5031758;28;20028;-73
2022/08/27 09:40:28;;;;;;;12.02;3.88;;;;;;;;;;5032243;28;20100;-70
2022/08/27 09:42:55;;;;;;;8.50;3.13;;;;;;;;;;5024915;28;20374;-74
2022/08/27 09:45:23;;;;;;;6.82;2.80;;;;;;;;;;5031652;28;20493;-71
2022/08/27 09:47:53;;;;;;;8.05;2.75;;;;;;;;;;5031829;28;20262;-73
2022/08/27 09:50:19;;;;;;;7.93;2.33;;;;;;;;;;5026965;28;20025;-74
2022/08/27 09:52:55;;;;;;;6.93;3.10;;;;;;;;;;5026844;28;20518;-73
2022/08/27 09:55:29;;;;;;;12.73;2.75;;;;;;;;;;5011989;28;20022;-73
2022/08/27 09:57:54;;;;;;;12.02;3.42;;;;;;;;;;5011898;28;20022;-71
2022/08/27 10:00:27;;;;;;;9.05;2.40;;;;;;;;;;5032528;28;20079;-73
2022/08/27 10:02:52;;;;;;;7.63;2.42;;;;;;;;;;5016414;28;20033;-73
2022/08/27 10:05:23;;;;;;;12.02;2.70;;;;;;;;;;5018399;28;20389;-73
2022/08/27 10:07:52;;;;;;;9.80;2.92;;;;;;;;;;5051364;28;20032;-73
2022/08/27 10:10:28;;;;;;;12.43;3.00;;;;;;;;;;5040303;28;20017;-70
2022/08/27 10:12:59;;;;;;;19.80;4.05;;;;;;;;;;5013791;28;20026;-70
2022/08/27 10:15:28;;;;;;;12.85;4.00;;;;;;;;;;5014357;28;20030;-74
2022/08/27 10:17:56;;;;;;;8.63;2.55;;;;;;;;;;5026250;28;20022;-73
2022/08/27 10:20:31;;;;;;;12.40;2.83;;;;;;;;;;5013041;28;20053;-73
2022/08/27 10:23:04;;;;;;;5.85;2.65;;;;;;;;;;5025611;28;20038;-74
2022/08/27 10:25:38;;;;;;;9.15;2.80;;;;;;;;;;5021338;28;20482;-74
2022/08/27 10:28:06;;;;;;;14.35;2.60;;;;;;;;;;5010067;28;20030;-70
2022/08/27 10:30:46;;;;;;;10.70;2.60;;;;;;;;;;5011397;28;20092;-73
2022/08/27 10:33:26;;;;;;;7.00;2.33;;;;;;;;;;5018859;28;20374;-74
2022/08/27 10:35:58;;;;;;;8.55;2.53;;;;;;;;;;5021620;28;20037;-72
2022/08/27 10:38:35;;;;;;;12.30;2.40;;;;;;;;;;5011516;28;20037;-70
2022/08/27 10:41:02;;;;;;;8.02;2.58;;;;;;;;;;5027781;28;20389;-73
2022/08/27 10:43:36;;;;;;;8.48;2.80;;;;;;;;;;5024512;28;20042;-73
2022/08/27 10:46:11;;;;;;;13.15;3.47;;;;;;;;;;5015183;28;20018;-71
2022/08/27 10:48:43;;;;;;;7.82;2.70;;;;;;;;;;5013633;28;20152;-73
2022/08/27 10:51:18;;;;;;;6.95;2.20;;;;;;;;;;5031254;28;20087;-73
2022/08/27 10:53:53;;;;;;;13.65;2.70;;;;;;;;;;5034901;28;20468;-74
2022/08/27 10:56:38;;;;;;;9.52;3.08;;;;;;;;;;5030271;28;20018;-73
2022/08/27 10:59:20;;;;;;;14.18;3.22;;;;;;;;;;5024977;28;20566;-73
2022/08/27 11:01:54;;;;;;;15.07;2.75;;;;;;;;;;5033757;28;20029;-71
2022/08/27 11:04:23;;;;;;;10.93;2.65;;;;;;;;;;5028874;28;20561;-71
2022/08/27 11:06:49;;;;;;;9.75;2.50;;;;;;;;;;5041583;28;20052;-73
2022/08/27 11:09:22;;;;;;;9.70;2.67;;;;;;;;;;5032083;28;20025;-73
2022/08/27 11:11:49;;;;;;;6.47;2.42;;;;;;;;;;5014765;28;20314;-74
2022/08/27 11:14:27;;;;;;;16.63;3.28;;;;;;;;;;5014853;28;20017;-74
2022/08/27 11:16:54;;;;;;;6.57;2.50;;;;;;;;;;5016704;28;20030;-74
2022/08/27 11:19:22;;;;;;;7.22;1.90;;;;;;;;;;5032212;28;20489;-74
2022/08/27 11:21:49;;;;;;;10.65;2.30;;;;;;;;;;5028597;28;20064;-74
2022/08/27 11:24:20;;;;;;;9.43;2.75;;;;;;;;;;5028220;28;20438;-73
2022/08/27 11:26:48;;;;;;;13.35;2.20;;;;;;;;;;5014890;28;20521;-74
2022/08/27 11:29:26;;;;;;;7.78;2.55;;;;;;;;;;5014122;28;20053;-71
2022/08/27 11:32:10;;;;;;;10.13;2.95;;;;;;;;;;5021344;28;20411;-70
2022/08/27 11:34:45;;;;;;;13.35;2.03;;;;;;;;;;5018696;28;20113;-71
2022/08/27 11:37:29;;;;;;;9.43;2.17;;;;;;;;;;5030429;28;20396;-73
2022/08/27 11:40:07;;;;;;;14.05;2.38;;;;;;;;;;5033843;28;20520;-72
2022/08/27 11:42:42;;;;;;;6.72;2.13;;;;;;;;;;5019610;28;20030;-71
2022/08/27 11:45:14;;;;;;;4.70;1.95;;;;;;;;;;5014318;28;20425;-71
2022/08/27 11:47:49;;;;;;;10.95;2.15;;;;;;;;;;5014368;28;20516;-71
2022/08/27 11:50:16;;;;;;;10.57;2.50;;;;;;;;;;5016021;28;20041;-71
2022/08/27 11:52:53;;;;;;;8.77;2.63;;;;;;;;;;5033715;28;20100;-74
2022/08/27 11:55:18;;;;;;;7.65;1.80;;;;;;;;;;5013562;28;20096;-70
2022/08/27 11:57:44;;;;;;;9.57;2.27;;;;;;;;;;5018679;28;20462;-70
2022/08/27 12:00:13;;;;;;;9.52;3.25;;;;;;;;;;5014442;28;20057;-73
2022/08/27 12:02:39;;;;;;;5.25;2.08;;;;;;;;;;5012514;28;20037;-74
2022/08/27 12:05:06;;;;;;;9.38;2.10;;;;;;;;;;5018339;28;20490;-73
2022/08/27 12:07:33;;;;;;;10.20;2.13;;;;;;;;;;5018919;28;20026;-74
2022/08/27 12:09:59;;;;;;;8.57;2.13;;;;;;;;;;5021859;28;20055;-71
2022/08/27 12:12:43;;;;;;;6.70;1.80;;;;;;;;;;5025676;28;20033;-73
2022/08/27 12:15:15;;;;;;;7.60;1.98;;;;;;;;;;5022133;28;20259;-73
2022/08/27 12:17:47;;;;;;;13.15;2.72;;;;;;;;;;5030919;28;20878;-74
2022/08/27 12:20:21;;;;;;;10.73;2.25;;;;;;;;;;5015227;28;20482;-71
2022/08/27 12:25:38;;;;;;;10.60;2.10;;;;;;;;;;5013708;28;20069;-73
2022/08/27 12:28:04;;;;;;;6.20;2.05;;;;;;;;;;5013184;28;20326;-71
2022/08/27 12:30:34;;;;;;;8.90;2.15;;;;;;;;;;5017052;28;20516;-73
2022/08/27 12:33:08;;;;;;;10.55;2.83;;;;;;;;;;5028811;28;20107;-73
2022/08/27 12:35:45;;;;;;;6.28;2.20;;;;;;;;;;5033238;28;20056;-74
2022/08/27 12:38:42;;;;;;;8.73;1.75;;;;;;;;;;5028618;28;20513;-74
2022/08/27 12:41:08;;;;;;;8.35;1.70;;;;;;;;;;5012976;28;20037;-71
2022/08/27 12:43:33;;;;;;;12.23;2.15;;;;;;;;;;5012888;28;20021;-74
2022/08/27 12:46:00;;;;;;;5.45;2.13;;;;;;;;;;5012837;28;20046;-73
2022/08/27 12:48:31;;;;;;;8.73;2.05;;;;;;;;;;5015083;28;20065;-74
2022/08/27 12:50:58;;;;;;;10.85;1.80;;;;;;;;;;5023608;28;20108;-73
2022/08/27 12:53:32;;;;;;;5.80;2.00;;;;;;;;;;5032778;28;20080;-74
2022/08/27 12:56:01;;;;;;;9.07;2.05;;;;;;;;;;5017167;28;20073;-73
2022/08/27 12:58:49;;;;;;;8.40;2.00;;;;;;;;;;5018648;28;20536;-70
2022/08/27 13:01:14;;;;;;;10.75;3.35;;;;;;;;;;5032056;28;20448;-70
2022/08/27 13:03:42;;;;;;;5.50;2.13;;;;;;;;;;5023094;28;20037;-73
2022/08/27 13:06:18;;;;;;;14.32;2.05;;;;;;;;;;5032401;28;20082;-73
2022/08/27 13:08:43;;;;;;;4.53;1.88;;;;;;;;;;5051343;28;20021;-73
2022/08/27 13:11:10;;;;;;;6.78;1.55;;;;;;;;;;5032897;28;20095;-73
2022/08/27 13:13:35;;;;;;;6.53;1.70;;;;;;;;;;5022346;28;20013;-70
2022/08/27 13:16:02;;;;;;;5.63;1.67;;;;;;;;;;5030270;28;20052;-74
2022/08/27 13:18:28;;;;;;;10.30;1.73;;;;;;;;;;5029013;28;20045;-71
2022/08/27 13:21:01;;;;;;;6.22;1.48;;;;;;;;;;5019966;28;20032;-74
2022/08/27 13:23:26;;;;;;;6.13;1.98;;;;;;;;;;5027229;28;20105;-73
2022/08/27 13:26:12;;;;;;;9.35;2.17;;;;;;;;;;5012178;28;20050;-74
2022/08/27 13:28:39;;;;;;;7.60;1.70;;;;;;;;;;5029195;28;20034;-73
2022/08/27 13:31:05;;;;;;;9.25;2.78;;;;;;;;;;5032436;28;20381;-74
2022/08/27 13:33:32;;;;;;;8.23;1.83;;;;;;;;;;5012994;28;20428;-74
2022/08/27 13:35:59;;;;;;;8.48;2.38;;;;;;;;;;5012515;28;20034;-74
2022/08/27 13:38:26;;;;;;;9.02;2.10;;;;;;;;;;5011783;28;20018;-70
2022/08/27 13:40:57;;;;;;;9.20;1.77;;;;;;;;;;5026325;28;20152;-70
2022/08/27 13:43:30;;;;;;;5.63;1.67;;;;;;;;;;5031856;28;20045;-74
2022/08/27 13:45:56;;;;;;;7.18;1.70;;;;;;;;;;5012022;28;20026;-74
2022/08/27 13:48:22;;;;;;;6.28;1.70;;;;;;;;;;5011814;28;20076;-71
2022/08/27 13:50:51;;;;;;;7.18;1.73;;;;;;;;;;5018184;28;20036;-70
2022/08/27 13:56:22;;;;;;;9.65;1.90;;;;;;;;;;5013037;28;20029;-73
2022/08/27 13:58:48;;;;;;;5.50;1.63;;;;;;;;;;5019268;28;20041;-73
2022/08/27 14:01:14;;;;;;;10.38;2.60;;;;;;;;;;5025806;28;20537;-71
2022/08/27 14:03:54;;;;;;;6.20;1.63;;;;;;;;;;5011567;28;20037;-74
2022/08/27 14:06:42;;;;;;;7.72;1.77;;;;;;;;;;5035802;28;20527;-73
2022/08/27 14:09:10;;;;;;;4.88;1.40;;;;;;;;;;5045041;28;20071;-73
2022/08/27 14:11:35;;;;;;;7.78;1.55;;;;;;;;;;5013938;28;20109;-73
2022/08/27 14:14:01;;;;;;;5.05;1.73;;;;;;;;;;5018911;28;20512;-71
2022/08/27 14:16:28;;;;;;;8.70;1.70;;;;;;;;;;5014788;28;20065;-71
2022/08/27 14:18:57;;;;;;;7.65;1.90;;;;;;;;;;5030731;28;20034;-73
2022/08/27 14:21:22;;;;;;;12.88;1.70;;;;;;;;;;5031340;28;20037;-70
2022/08/27 14:23:47;;;;;;;6.47;1.58;;;;;;;;;;5030938;28;20029;-72
2022/08/27 14:26:14;;;;;;;4.43;1.33;;;;;;;;;;5018604;28;20046;-73
2022/08/27 14:28:41;;;;;;;5.32;1.45;;;;;;;;;;5026890;28;20132;-74
2022/08/27 14:31:06;;;;;;;5.15;1.58;;;;;;;;;;5026287;28;20528;-74
2022/08/27 14:33:32;;;;;;;4.28;1.70;;;;;;;;;;5038132;28;20105;-71
2022/08/27 14:35:58;;;;;;;4.70;1.55;;;;;;;;;;5011579;28;20453;-71
2022/08/27 14:38:25;;;;;;;6.97;1.48;;;;;;;;;;5011250;28;20378;-74
2022/08/27 14:40:52;;;;;;;7.28;1.92;;;;;;;;;;5011033;28;20038;-73
2022/08/27 14:43:17;;;;;;;6.25;1.95;;;;;;;;;;5011065;28;20022;-74
2022/08/27 14:45:44;;;;;;;5.38;1.30;;;;;;;;;;5011081;28;20555;-74
2022/08/27 14:48:12;;;;;;;7.32;1.77;;;;;;;;;;5018444;28;20079;-71
2022/08/27 14:50:37;;;;;;;12.10;1.80;;;;;;;;;;5030883;28;20017;-73
2022/08/27 14:53:03;;;;;;;3.92;1.50;;;;;;;;;;5024885;28;20420;-73
2022/08/27 14:55:30;;;;;;;6.70;2.00;;;;;;;;;;5011449;28;20026;-74
2022/08/27 14:57:55;;;;;;;8.93;1.63;;;;;;;;;;5012247;28;20010;-74